Time;durP1;ratioP1;P1;durP2;ratioP2;P2;SDS_P1;SDS_P2;PMS_P1;PMS_P2;Temp;Humidity;BMP_temperature;BMP_pressure;BME280_temperature;BME280_humidity;BME280_pressure;Samples;Min_cycle;Max_cycle;Signal;HPM_P1;HPM_P2
2022/12/01 00:02:16;;;;;;;71.95;27.70;;;6.40;99.90;;;;;;5018200;28;20026;-92
2022/12/01 00:04:42;;;;;;;65.85;25.23;;;6.30;99.90;;;;;;5013667;28;20062;-92
2022/12/01 00:07:07;;;;;;;60.47;25.27;;;6.30;99.90;;;;;;5015302;28;20030;-93
2022/12/01 00:12:17;;;;;;;65.18;27.23;;;6.30;99.90;;;;;;5014645;28;20052;-94
2022/12/01 00:14:42;;;;;;;65.63;26.52;;;6.30;99.90;;;;;;5028336;28;20030;-93
2022/12/01 00:17:08;;;;;;;65.25;26.85;;;6.30;99.90;;;;;;5008216;28;20041;-92
2022/12/01 00:19:34;;;;;;;57.78;22.80;;;6.40;99.90;;;;;;5013592;28;20030;-93
2022/12/01 00:21:59;;;;;;;61.08;24.42;;;6.30;99.90;;;;;;5013040;28;20030;-93
2022/12/01 00:24:25;;;;;;;61.03;25.20;;;6.30;99.90;;;;;;5028137;28;20129;-92
2022/12/01 00:26:51;;;;;;;75.75;27.20;;;6.30;99.90;;;;;;5012574;28;20026;-93
2022/12/01 00:29:17;;;;;;;71.30;26.60;;;6.30;99.90;;;;;;5013484;28;20033;-93
2022/12/01 00:31:42;;;;;;;66.97;26.88;;;6.30;99.90;;;;;;5012152;28;20176;-91
2022/12/01 00:34:21;;;;;;;68.15;24.92;;;6.30;99.90;;;;;;5012640;28;20029;-93
2022/12/01 00:36:47;;;;;;;71.20;26.90;;;6.40;99.90;;;;;;5010272;28;20033;-91
2022/12/01 00:39:12;;;;;;;75.70;28.17;;;6.30;99.90;;;;;;5012782;28;20049;-92
2022/12/01 00:41:41;;;;;;;78.03;29.23;;;6.30;99.90;;;;;;5011613;28;20022;-92
2022/12/01 00:44:06;;;;;;;75.15;28.20;;;6.30;99.90;;;;;;5016310;28;20504;-93
2022/12/01 00:46:32;;;;;;;71.18;28.02;;;6.30;99.90;;;;;;5013816;28;20080;-93
2022/12/01 00:48:58;;;;;;;74.07;28.60;;;6.30;99.90;;;;;;5031207;28;20080;-92
2022/12/01 00:51:23;;;;;;;66.22;25.77;;;6.30;99.90;;;;;;5018269;28;20506;-92
2022/12/01 00:53:49;;;;;;;68.13;25.70;;;6.20;99.90;;;;;;5012836;28;20030;-91
2022/12/01 00:56:15;;;;;;;62.97;26.13;;;6.20;99.90;;;;;;5013792;28;20033;-93
2022/12/01 00:58:41;;;;;;;69.50;28.80;;;6.30;99.90;;;;;;5026680;28;20021;-93
2022/12/01 01:01:06;;;;;;;66.90;25.50;;;6.20;99.90;;;;;;5026727;28;20067;-92
2022/12/01 01:03:33;;;;;;;68.28;26.20;;;6.20;99.90;;;;;;5010471;28;20032;-93
2022/12/01 01:06:05;;;;;;;67.20;26.77;;;6.20;99.90;;;;;;5027190;28;20038;-93
2022/12/01 01:08:31;;;;;;;70.07;28.25;;;6.20;99.90;;;;;;5009553;28;20083;-94
2022/12/01 01:10:59;;;;;;;67.82;27.40;;;6.20;99.90;;;;;;5011694;28;20034;-93
2022/12/01 01:13:24;;;;;;;68.35;25.92;;;6.20;99.90;;;;;;5009642;28;20021;-94
2022/12/01 01:16:02;;;;;;;65.53;25.88;;;6.20;99.90;;;;;;5009015;28;20022;-91
2022/12/01 01:18:28;;;;;;;70.22;27.88;;;6.20;99.90;;;;;;5009849;28;20041;-93
2022/12/01 01:20:58;;;;;;;68.90;28.52;;;6.20;99.90;;;;;;5010193;28;20022;-93
2022/12/01 01:23:25;;;;;;;66.32;26.23;;;6.20;99.90;;;;;;5009436;28;20033;-93
2022/12/01 01:25:50;;;;;;;62.50;25.80;;;6.20;99.90;;;;;;5025934;28;20104;-93
2022/12/01 01:28:17;;;;;;;61.38;26.00;;;6.30;99.90;;;;;;5011269;28;20042;-92
2022/12/01 01:30:43;;;;;;;64.88;27.50;;;6.20;99.90;;;;;;5025680;28;20041;-92
2022/12/01 01:33:09;;;;;;;68.50;27.15;;;6.20;99.90;;;;;;5008312;28;20116;-94
2022/12/01 01:35:34;;;;;;;71.28;27.58;;;6.20;99.90;;;;;;5009041;28;20034;-93
2022/12/01 01:38:00;;;;;;;58.70;25.65;;;6.20;99.90;;;;;;5007549;28;20097;-92
2022/12/01 01:40:25;;;;;;;65.47;26.20;;;6.20;99.90;;;;;;5008971;28;20022;-92
2022/12/01 01:42:51;;;;;;;61.30;26.40;;;6.20;99.90;;;;;;5007964;28;20061;-92
2022/12/01 01:45:24;;;;;;;78.32;28.85;;;6.20;99.90;;;;;;5006930;28;20041;-93
2022/12/01 01:47:51;;;;;;;62.15;26.63;;;6.20;99.90;;;;;;5008589;28;20042;-92
2022/12/01 01:50:21;;;;;;;65.90;28.85;;;6.20;99.90;;;;;;5023940;28;20029;-93
2022/12/01 01:53:09;;;;;;;66.10;26.65;;;6.20;99.90;;;;;;5009897;28;20034;-95
2022/12/01 01:55:35;;;;;;;68.18;27.85;;;6.20;99.90;;;;;;5008691;28;20083;-92
2022/12/01 01:58:03;;;;;;;64.85;28.00;;;6.20;99.90;;;;;;5009864;28;20480;-92
2022/12/01 02:00:29;;;;;;;66.25;27.25;;;6.10;99.90;;;;;;5009092;28;20107;-93
2022/12/01 02:02:56;;;;;;;67.50;27.38;;;6.20;99.90;;;;;;5010623;28;20026;-93
2022/12/01 02:05:24;;;;;;;72.00;29.70;;;6.20;99.90;;;;;;5007782;28;20030;-92
2022/12/01 02:07:52;;;;;;;65.28;28.15;;;6.20;99.90;;;;;;5022330;28;20022;-93
2022/12/01 02:10:21;;;;;;;61.40;26.88;;;6.20;99.90;;;;;;5009122;28;20116;-93
2022/12/01 02:13:23;;;;;;;68.88;27.98;;;6.20;99.90;;;;;;5010432;28;20030;-93
2022/12/01 02:16:26;;;;;;;60.63;26.17;;;6.20;99.90;;;;;;5024745;28;20573;-91
2022/12/01 02:19:17;;;;;;;65.13;26.52;;;6.20;99.90;;;;;;5010489;28;20029;-93
2022/12/01 02:21:57;;;;;;;64.88;27.15;;;6.20;99.90;;;;;;5010441;28;20030;-93
2022/12/01 02:24:44;;;;;;;64.47;27.38;;;6.20;99.90;;;;;;5008896;28;20042;-93
2022/12/01 02:27:45;;;;;;;58.70;25.70;;;6.20;99.90;;;;;;5008873;28;20072;-94
2022/12/01 02:30:18;;;;;;;65.80;26.90;;;6.20;99.90;;;;;;4971270;28;20058;-93
2022/12/01 02:32:52;;;;;;;57.53;24.63;;;6.20;99.90;;;;;;5022758;28;20057;-92
2022/12/01 02:35:36;;;;;;;63.45;26.85;;;6.20;99.90;;;;;;5007191;28;20034;-94
2022/12/01 02:38:26;;;;;;;62.22;27.65;;;6.20;99.90;;;;;;5026088;28;20034;-91
2022/12/01 02:41:04;;;;;;;61.60;26.88;;;6.20;99.90;;;;;;5028560;28;20038;-92
2022/12/01 02:43:39;;;;;;;64.63;27.08;;;6.20;99.90;;;;;;5028813;28;20105;-93
2022/12/01 02:46:15;;;;;;;65.45;28.10;;;6.20;99.90;;;;;;5012704;28;20077;-90
2022/12/01 02:48:47;;;;;;;67.25;27.92;;;6.20;99.90;;;;;;5025203;28;20036;-92
2022/12/01 02:51:19;;;;;;;63.35;27.45;;;6.20;99.90;;;;;;5008904;28;20052;-92
2022/12/01 02:53:45;;;;;;;63.85;26.73;;;6.20;99.90;;;;;;5008101;28;20029;-92
2022/12/01 02:56:13;;;;;;;65.28;28.48;;;6.20;99.90;;;;;;5016327;28;20392;-92
2022/12/01 02:58:39;;;;;;;62.50;28.27;;;6.20;99.90;;;;;;5021420;28;20034;-91
2022/12/01 03:01:19;;;;;;;63.83;26.45;;;6.20;99.90;;;;;;5007274;28;20030;-94
2022/12/01 03:04:23;;;;;;;65.45;28.45;;;6.20;99.90;;;;;;5022831;28;20026;-92
2022/12/01 03:07:23;;;;;;;69.32;26.73;;;6.20;99.90;;;;;;5008264;28;20069;-93
2022/12/01 03:09:54;;;;;;;63.13;27.42;;;6.20;99.90;;;;;;5024356;28;20029;-92
2022/12/01 03:12:41;;;;;;;71.30;29.77;;;6.20;99.90;;;;;;5005424;28;20033;-94
2022/12/01 03:15:17;;;;;;;70.00;29.00;;;6.20;99.90;;;;;;5022869;28;20030;-95
2022/12/01 03:17:51;;;;;;;74.15;30.35;;;6.20;99.90;;;;;;5006881;28;20057;-95
2022/12/01 03:20:46;;;;;;;65.72;27.95;;;6.20;99.90;;;;;;5005387;28;20431;-93
2022/12/01 03:23:16;;;;;;;68.93;28.50;;;6.20;99.90;;;;;;5020928;28;20032;-93
2022/12/01 03:25:46;;;;;;;71.25;29.17;;;6.20;99.90;;;;;;5010377;28;20033;-92
2022/12/01 03:28:17;;;;;;;66.00;28.10;;;6.20;99.90;;;;;;5028381;28;20030;-92
2022/12/01 03:30:45;;;;;;;68.68;28.05;;;6.20;99.90;;;;;;5014991;28;20406;-93
2022/12/01 03:33:22;;;;;;;69.45;30.85;;;6.20;99.90;;;;;;5013514;28;20022;-93
2022/12/01 03:36:00;;;;;;;66.38;28.25;;;6.20;99.90;;;;;;5014409;28;20096;-93
2022/12/01 03:38:29;;;;;;;70.72;29.33;;;6.20;99.90;;;;;;5014182;28;20038;-92
2022/12/01 03:41:04;;;;;;;68.05;28.88;;;6.20;99.90;;;;;;5031148;28;20025;-93
2022/12/01 03:43:34;;;;;;;66.68;27.75;;;6.20;99.90;;;;;;5019387;28;20048;-92
2022/12/01 03:46:17;;;;;;;70.30;29.70;;;6.20;99.90;;;;;;5014498;28;20141;-92
2022/12/01 03:48:44;;;;;;;71.95;30.25;;;6.20;99.90;;;;;;5014689;28;20077;-92
2022/12/01 03:51:15;;;;;;;74.85;29.58;;;6.20;99.90;;;;;;5012150;28;20119;-94
2022/12/01 03:54:05;;;;;;;71.57;28.23;;;6.20;99.90;;;;;;5007960;28;20060;-92
2022/12/01 03:56:37;;;;;;;72.38;29.08;;;6.20;99.90;;;;;;5000029;28;20014;-93
2022/12/01 03:59:07;;;;;;;72.03;27.70;;;6.10;99.90;;;;;;5016304;28;20033;-92
2022/12/01 04:01:33;;;;;;;76.07;28.75;;;6.10;99.90;;;;;;5006969;28;20485;-93
2022/12/01 04:04:08;;;;;;;77.75;29.85;;;6.20;99.90;;;;;;5025806;28;20177;-93
2022/12/01 04:06:34;;;;;;;78.75;30.98;;;6.20;99.90;;;;;;5007119;28;20029;-93
2022/12/01 04:09:00;;;;;;;76.32;30.63;;;6.10;99.90;;;;;;5008951;28;20023;-92
2022/12/01 04:14:10;;;;;;;79.57;29.92;;;6.20;99.90;;;;;;5016240;28;20049;-93
2022/12/01 04:16:36;;;;;;;81.47;31.80;;;6.10;99.90;;;;;;5035164;28;20026;-93
2022/12/01 04:19:01;;;;;;;73.97;28.60;;;6.20;99.90;;;;;;5019866;28;20033;-93
2022/12/01 04:21:27;;;;;;;76.90;31.10;;;6.10;99.90;;;;;;5018548;28;20026;-93
2022/12/01 04:23:59;;;;;;;80.38;32.10;;;6.20;99.90;;;;;;5017625;28;20364;-92
2022/12/01 04:26:25;;;;;;;79.53;31.10;;;6.20;99.90;;;;;;5016675;28;20026;-93
2022/12/01 04:28:50;;;;;;;77.18;30.10;;;6.10;99.90;;;;;;5010562;28;20045;-93
2022/12/01 04:31:16;;;;;;;81.97;33.63;;;6.10;99.90;;;;;;5023373;28;20033;-91
2022/12/01 04:33:42;;;;;;;80.15;30.30;;;6.10;99.90;;;;;;5015673;28;20034;-91
2022/12/01 04:36:08;;;;;;;86.30;31.05;;;6.10;99.90;;;;;;5017024;28;20057;-92
2022/12/01 04:38:35;;;;;;;81.70;31.98;;;6.10;99.90;;;;;;5020135;28;20034;-92
2022/12/01 04:41:09;;;;;;;79.82;32.85;;;6.20;99.90;;;;;;5022051;28;20053;-91
2022/12/01 04:43:35;;;;;;;76.97;29.50;;;6.10;99.90;;;;;;5004600;28;20026;-92
2022/12/01 04:46:00;;;;;;;78.95;30.98;;;6.20;99.90;;;;;;5021331;28;20049;-95
2022/12/01 04:48:26;;;;;;;83.93;30.42;;;6.20;99.90;;;;;;5020289;28;20071;-93
2022/12/01 04:50:52;;;;;;;89.15;33.10;;;6.20;99.90;;;;;;5018511;28;20026;-92
2022/12/01 04:53:17;;;;;;;86.53;31.23;;;6.20;99.90;;;;;;5018266;28;20473;-93
2022/12/01 04:55:43;;;;;;;74.55;29.30;;;6.10;99.90;;;;;;5016876;28;20022;-92
2022/12/01 04:58:09;;;;;;;72.03;29.48;;;6.30;99.90;;;;;;5018185;28;20500;-92
2022/12/01 05:00:35;;;;;;;76.78;32.20;;;6.20;99.90;;;;;;5016911;28;20156;-92
2022/12/01 05:03:02;;;;;;;72.40;30.20;;;6.10;99.90;;;;;;5018041;28;20037;-92
2022/12/01 05:05:28;;;;;;;74.13;32.00;;;6.20;99.90;;;;;;5017167;28;20510;-93
2022/12/01 05:07:54;;;;;;;73.53;31.02;;;6.20;99.90;;;;;;5018591;28;20025;-93
2022/12/01 05:10:20;;;;;;;68.05;28.15;;;6.20;99.90;;;;;;5033283;28;20029;-95
2022/12/01 05:12:46;;;;;;;71.30;28.40;;;6.20;99.90;;;;;;5018079;28;20064;-93
2022/12/01 05:15:12;;;;;;;71.85;29.63;;;6.20;99.90;;;;;;5016389;28;20391;-92
2022/12/01 05:17:37;;;;;;;73.28;29.55;;;6.20;99.90;;;;;;5017842;28;20033;-93
2022/12/01 05:22:51;;;;;;;68.40;29.20;;;6.20;99.90;;;;;;5019288;28;20037;-94
2022/12/01 05:25:17;;;;;;;71.88;29.27;;;6.20;99.90;;;;;;5017298;28;20034;-93
2022/12/01 05:27:43;;;;;;;66.05;27.58;;;6.20;99.90;;;;;;5020399;28;20026;-92
2022/12/01 05:30:09;;;;;;;71.30;30.67;;;6.20;99.90;;;;;;5029919;28;20044;-93
2022/12/01 05:32:38;;;;;;;64.70;28.02;;;6.20;99.90;;;;;;5017317;28;20029;-94
2022/12/01 05:35:04;;;;;;;70.60;30.60;;;6.20;99.90;;;;;;5023379;28;20032;-93
2022/12/01 05:37:33;;;;;;;70.68;29.52;;;6.20;99.90;;;;;;5033831;28;20406;-93
2022/12/01 05:39:59;;;;;;;71.07;28.30;;;6.20;99.90;;;;;;5017827;28;20080;-93
2022/12/01 05:42:26;;;;;;;73.53;31.40;;;6.20;99.90;;;;;;5033227;28;20484;-92
2022/12/01 05:44:52;;;;;;;64.03;28.60;;;6.20;99.90;;;;;;5015833;28;20030;-95
2022/12/01 05:47:17;;;;;;;69.97;29.02;;;6.20;99.90;;;;;;5016647;28;20053;-93
2022/12/01 05:49:43;;;;;;;68.63;28.85;;;6.20;99.90;;;;;;5016747;28;20072;-92
2022/12/01 05:52:09;;;;;;;129.40;52.75;;;6.20;99.90;;;;;;5017090;28;20034;-93
2022/12/01 05:54:34;;;;;;;75.63;34.05;;;6.30;99.90;;;;;;5016217;28;20037;-92
2022/12/01 05:57:00;;;;;;;65.53;30.80;;;6.20;99.90;;;;;;5016998;28;20030;-93
2022/12/01 05:59:28;;;;;;;69.53;31.08;;;6.30;99.90;;;;;;5016938;28;20064;-93
2022/12/01 06:01:54;;;;;;;64.22;27.67;;;6.30;99.90;;;;;;5016302;28;20030;-91
2022/12/01 06:04:20;;;;;;;68.22;27.70;;;6.40;99.90;;;;;;5013874;28;20090;-93
2022/12/01 06:06:45;;;;;;;71.70;30.98;;;6.40;99.90;;;;;;5000800;28;20120;-93
2022/12/01 06:09:11;;;;;;;61.15;27.48;;;6.40;99.90;;;;;;5006508;28;20025;-92
2022/12/01 06:11:37;;;;;;;63.10;28.23;;;6.40;99.90;;;;;;5014789;28;20038;-93
2022/12/01 06:14:03;;;;;;;70.25;29.25;;;6.40;99.90;;;;;;5016261;28;20036;-92
2022/12/01 06:16:28;;;;;;;73.38;29.35;;;6.40;99.90;;;;;;5029853;28;20036;-93
2022/12/01 06:18:54;;;;;;;64.95;28.02;;;6.30;99.90;;;;;;5016027;28;20120;-92
2022/12/01 06:21:19;;;;;;;62.60;27.80;;;6.40;99.90;;;;;;5013437;28;20081;-92
2022/12/01 06:23:45;;;;;;;66.15;28.38;;;6.30;99.90;;;;;;5021852;28;20032;-92
2022/12/01 06:26:10;;;;;;;66.22;28.25;;;6.30;99.90;;;;;;5020393;28;20633;-92
2022/12/01 06:28:36;;;;;;;69.50;29.02;;;6.30;99.90;;;;;;5015952;28;20543;-91
2022/12/01 06:31:02;;;;;;;62.78;28.88;;;6.30;99.90;;;;;;5013177;28;20032;-91
2022/12/01 06:33:27;;;;;;;66.20;28.75;;;6.30;99.90;;;;;;5017719;28;20018;-90
2022/12/01 06:36:01;;;;;;;57.95;26.15;;;6.30;99.90;;;;;;5017671;28;20037;-91
2022/12/01 06:38:30;;;;;;;62.63;29.25;;;6.20;99.90;;;;;;5016241;28;20040;-91
2022/12/01 06:40:55;;;;;;;66.47;27.90;;;6.20;99.90;;;;;;5016966;28;20033;-92
2022/12/01 06:43:21;;;;;;;64.45;27.20;;;6.20;99.90;;;;;;5014621;28;20022;-92
2022/12/01 06:45:47;;;;;;;66.25;28.60;;;6.20;99.90;;;;;;5022261;28;20038;-92
2022/12/01 06:48:13;;;;;;;67.82;28.58;;;6.10;99.90;;;;;;5020436;28;20052;-92
2022/12/01 06:50:39;;;;;;;64.15;27.42;;;6.10;99.90;;;;;;5016597;28;20030;-92
2022/12/01 06:53:04;;;;;;;71.05;29.80;;;6.10;99.90;;;;;;5015329;28;20025;-92
2022/12/01 06:55:30;;;;;;;64.72;27.52;;;6.10;99.90;;;;;;5012211;28;20053;-93
2022/12/01 06:57:59;;;;;;;67.00;27.55;;;6.00;99.90;;;;;;5014697;28;20400;-92
2022/12/01 07:00:24;;;;;;;73.18;28.33;;;6.00;99.90;;;;;;5006090;28;20057;-92
2022/12/01 07:02:50;;;;;;;67.35;29.60;;;6.00;99.90;;;;;;5016038;28;20026;-91
2022/12/01 07:05:16;;;;;;;66.28;29.10;;;5.90;99.90;;;;;;5016946;28;20042;-92
2022/12/01 07:07:42;;;;;;;70.43;29.52;;;6.00;99.90;;;;;;5014762;28;20431;-92
2022/12/01 07:10:09;;;;;;;64.95;27.40;;;5.90;99.90;;;;;;5015607;28;20030;-91
2022/12/01 07:12:35;;;;;;;67.47;28.63;;;5.90;99.90;;;;;;5011934;28;20030;-92
2022/12/01 07:15:01;;;;;;;64.55;27.95;;;5.80;99.90;;;;;;5013280;28;20037;-91
2022/12/01 07:17:27;;;;;;;57.17;23.83;;;5.70;99.90;;;;;;5003552;28;20480;-93
2022/12/01 07:19:53;;;;;;;68.85;29.63;;;5.70;99.90;;;;;;5014040;28;20030;-91
2022/12/01 07:22:19;;;;;;;68.63;28.75;;;5.70;99.90;;;;;;5013771;28;20037;-92
2022/12/01 07:24:44;;;;;;;71.03;28.08;;;5.60;99.90;;;;;;5012762;28;20041;-91
2022/12/01 07:27:10;;;;;;;65.22;28.90;;;5.60;99.90;;;;;;5014274;28;20118;-93
2022/12/01 07:29:36;;;;;;;76.15;30.98;;;5.50;99.90;;;;;;5004381;28;20033;-92
2022/12/01 07:32:01;;;;;;;69.65;29.77;;;5.50;99.90;;;;;;5010383;28;20026;-91
2022/12/01 07:34:27;;;;;;;70.05;29.52;;;5.50;99.90;;;;;;5009780;28;20123;-91
2022/12/01 07:36:52;;;;;;;73.13;29.75;;;5.50;99.90;;;;;;5014659;28;20033;-92
2022/12/01 07:39:18;;;;;;;66.00;30.02;;;5.50;99.90;;;;;;5008627;28;20037;-92
2022/12/01 07:41:43;;;;;;;72.03;31.00;;;5.40;99.90;;;;;;5013774;28;20180;-92
2022/12/01 07:44:10;;;;;;;77.85;31.15;;;5.40;99.90;;;;;;5017491;28;20057;-92
2022/12/01 07:46:36;;;;;;;72.50;29.38;;;5.40;99.90;;;;;;5018586;28;20053;-92
2022/12/01 07:49:05;;;;;;;68.85;31.30;;;5.30;99.90;;;;;;5031522;28;20025;-92
2022/12/01 07:51:31;;;;;;;73.85;29.98;;;5.30;99.90;;;;;;5017296;28;20033;-92
2022/12/01 07:54:04;;;;;;;69.68;31.50;;;5.30;99.90;;;;;;5017358;28;20030;-93
2022/12/01 07:56:31;;;;;;;62.75;26.95;;;5.30;99.90;;;;;;5015962;28;20083;-92
2022/12/01 07:58:57;;;;;;;68.15;28.77;;;5.30;99.90;;;;;;5009462;28;20540;-92
2022/12/01 08:01:24;;;;;;;73.70;30.45;;;5.40;99.90;;;;;;5015590;28;20065;-92
2022/12/01 08:03:51;;;;;;;77.28;31.65;;;5.40;99.90;;;;;;5017158;28;20042;-92
2022/12/01 08:06:18;;;;;;;72.70;29.50;;;5.50;99.90;;;;;;5015351;28;20046;-93
2022/12/01 08:08:44;;;;;;;70.47;30.63;;;5.60;99.90;;;;;;5016317;28;20022;-94
2022/12/01 08:11:17;;;;;;;73.05;29.35;;;5.60;99.90;;;;;;5017064;28;20026;-93
2022/12/01 08:13:43;;;;;;;72.57;31.98;;;5.60;99.90;;;;;;5018748;28;20034;-92
2022/12/01 08:16:11;;;;;;;78.07;30.50;;;5.70;99.90;;;;;;5016857;28;20115;-94
2022/12/01 08:18:39;;;;;;;74.57;32.17;;;5.70;99.90;;;;;;5026185;28;20030;-91
2022/12/01 08:21:06;;;;;;;75.25;31.13;;;5.70;99.90;;;;;;5015287;28;20029;-96
2022/12/01 08:23:32;;;;;;;79.88;31.92;;;5.80;99.90;;;;;;5015760;28;20040;-92
2022/12/01 08:26:03;;;;;;;76.80;32.03;;;5.90;99.90;;;;;;5016487;28;20129;-91
2022/12/01 08:28:29;;;;;;;72.07;31.15;;;5.90;99.90;;;;;;5024428;28;20026;-92
2022/12/01 08:30:55;;;;;;;71.55;29.27;;;6.00;99.90;;;;;;5022116;28;20037;-93
2022/12/01 08:33:21;;;;;;;81.05;32.10;;;6.00;99.90;;;;;;5015420;28;20030;-92
2022/12/01 08:35:46;;;;;;;71.78;30.60;;;6.00;99.90;;;;;;5012846;28;20022;-92
2022/12/01 08:38:12;;;;;;;77.90;32.47;;;6.10;99.90;;;;;;5015959;28;20033;-91
2022/12/01 08:40:38;;;;;;;68.25;30.05;;;6.10;99.90;;;;;;5014085;28;20053;-92
2022/12/01 08:43:04;;;;;;;89.88;34.72;;;6.10;99.90;;;;;;5017389;28;20097;-92
2022/12/01 08:45:30;;;;;;;78.40;31.80;;;6.20;99.90;;;;;;5019923;28;20044;-90
2022/12/01 08:47:57;;;;;;;81.13;32.45;;;6.20;99.90;;;;;;5021676;28;20033;-93
2022/12/01 08:50:27;;;;;;;77.75;31.10;;;6.30;99.90;;;;;;5027742;28;20044;-92
2022/12/01 08:52:53;;;;;;;82.25;31.52;;;6.30;99.90;;;;;;5015463;28;20480;-92
2022/12/01 08:55:19;;;;;;;76.97;32.10;;;6.30;99.90;;;;;;5007529;28;20049;-92
2022/12/01 08:57:45;;;;;;;78.32;32.03;;;6.40;99.90;;;;;;5034047;28;20088;-92
2022/12/01 09:00:11;;;;;;;77.20;32.42;;;6.40;99.90;;;;;;5031570;28;20026;-94
2022/12/01 09:02:37;;;;;;;74.07;31.08;;;6.40;99.90;;;;;;5016304;28;20048;-92
2022/12/01 09:05:04;;;;;;;75.65;31.67;;;6.50;99.90;;;;;;5036885;28;20029;-92
2022/12/01 09:07:29;;;;;;;76.55;31.98;;;6.50;99.90;;;;;;5021872;28;20062;-93
2022/12/01 09:09:55;;;;;;;76.93;31.35;;;6.50;99.90;;;;;;5042739;28;20068;-92
2022/12/01 09:12:21;;;;;;;79.78;30.05;;;6.60;99.90;;;;;;5032502;28;20030;-92
2022/12/01 09:14:48;;;;;;;76.50;33.03;;;6.50;99.90;;;;;;5040426;28;20038;-90
2022/12/01 09:17:15;;;;;;;78.47;31.55;;;6.60;99.90;;;;;;5025423;28;20026;-91
2022/12/01 09:19:41;;;;;;;85.25;32.75;;;6.60;99.90;;;;;;5024215;28;20022;-90
2022/12/01 09:22:06;;;;;;;83.03;33.63;;;6.70;99.90;;;;;;5014519;28;20037;-92
2022/12/01 09:24:32;;;;;;;77.85;31.80;;;6.70;99.90;;;;;;5019425;28;20048;-91
2022/12/01 09:26:58;;;;;;;84.20;32.78;;;6.80;99.90;;;;;;5015296;28;20076;-91
2022/12/01 09:29:24;;;;;;;69.40;30.55;;;6.90;99.90;;;;;;5015554;28;20558;-91
2022/12/01 09:31:53;;;;;;;77.03;31.80;;;6.90;99.90;;;;;;5014094;28;20077;-91
2022/12/01 09:34:19;;;;;;;80.38;32.85;;;6.90;99.90;;;;;;5014340;28;20073;-93
2022/12/01 09:36:46;;;;;;;80.40;31.30;;;7.00;99.90;;;;;;5015524;28;20497;-92
2022/12/01 09:39:17;;;;;;;82.70;33.42;;;7.00;99.90;;;;;;5017374;28;20029;-92
2022/12/01 09:41:46;;;;;;;77.18;31.88;;;6.90;99.90;;;;;;5017959;28;20033;-91
2022/12/01 09:44:41;;;;;;;74.82;30.15;;;7.00;99.90;;;;;;5004208;28;20030;-92
2022/12/01 09:47:27;;;;;;;78.18;30.23;;;7.00;99.90;;;;;;5012280;28;20107;-91
2022/12/01 09:50:01;;;;;;;71.30;30.50;;;7.10;99.90;;;;;;5032403;28;20586;-91
2022/12/01 09:52:38;;;;;;;72.93;29.50;;;7.10;99.90;;;;;;5015801;28;20022;-92
2022/12/01 09:55:11;;;;;;;80.07;33.05;;;7.20;99.90;;;;;;5006666;28;20079;-92
2022/12/01 09:57:38;;;;;;;77.60;31.42;;;7.10;99.90;;;;;;5007884;28;20076;-92
2022/12/01 10:00:34;;;;;;;77.50;30.95;;;7.20;99.90;;;;;;5013285;28;20396;-92
2022/12/01 10:03:30;;;;;;;81.10;31.38;;;7.20;99.90;;;;;;5039902;28;20040;-91
2022/12/01 10:06:01;;;;;;;74.07;33.10;;;7.20;99.90;;;;;;5007988;28;20061;-91
2022/12/01 10:08:30;;;;;;;75.00;32.58;;;7.20;99.90;;;;;;5015557;28;20030;-91
2022/12/01 10:11:05;;;;;;;81.80;34.42;;;7.20;99.90;;;;;;5018137;28;20044;-93
2022/12/01 10:13:32;;;;;;;84.47;34.10;;;7.20;99.90;;;;;;5021079;28;20116;-91
2022/12/01 10:16:23;;;;;;;82.85;33.72;;;7.10;99.90;;;;;;5016126;28;20507;-92
2022/12/01 10:18:57;;;;;;;83.15;34.35;;;7.20;99.90;;;;;;5022524;28;20022;-92
2022/12/01 10:22:04;;;;;;;83.53;34.25;;;7.20;99.90;;;;;;5016388;28;20141;-92
2022/12/01 10:25:02;;;;;;;79.25;33.42;;;7.30;99.90;;;;;;5019287;28;20045;-92
2022/12/01 10:27:54;;;;;;;78.95;33.38;;;7.30;99.90;;;;;;5015613;28;20022;-92
2022/12/01 10:30:22;;;;;;;85.95;34.25;;;7.40;99.90;;;;;;5017285;28;20084;-92
2022/12/01 10:32:57;;;;;;;83.75;32.72;;;7.40;99.90;;;;;;5016875;28;20025;-92
2022/12/01 10:35:28;;;;;;;83.60;34.13;;;7.40;99.90;;;;;;4996311;28;20035;-92
2022/12/01 10:38:04;;;;;;;76.05;31.33;;;7.40;99.90;;;;;;5009178;28;20025;-92
2022/12/01 10:40:33;;;;;;;75.78;31.33;;;7.50;99.90;;;;;;5015728;28;20071;-92
2022/12/01 10:43:00;;;;;;;76.13;31.40;;;7.50;99.90;;;;;;5024812;28;20508;-92
2022/12/01 10:45:28;;;;;;;75.10;30.48;;;7.50;99.90;;;;;;5014937;28;20057;-91
2022/12/01 10:48:11;;;;;;;76.32;32.10;;;7.50;99.90;;;;;;5034133;28;20033;-92
2022/12/01 10:50:37;;;;;;;72.93;30.83;;;7.50;99.90;;;;;;5004659;28;20053;-91
2022/12/01 10:53:03;;;;;;;74.00;30.73;;;7.60;99.90;;;;;;5015587;28;20150;-92
2022/12/01 10:55:36;;;;;;;83.18;33.20;;;7.70;99.90;;;;;;5009787;28;20081;-93
2022/12/01 10:58:12;;;;;;;79.47;32.33;;;7.70;99.90;;;;;;5012868;28;20033;-93
2022/12/01 11:00:40;;;;;;;71.45;30.50;;;7.80;99.90;;;;;;5026986;28;20060;-91
2022/12/01 11:03:05;;;;;;;67.80;29.38;;;7.80;99.90;;;;;;5040817;28;20479;-92
2022/12/01 11:05:39;;;;;;;69.90;31.52;;;7.80;99.90;;;;;;5012271;28;20092;-91
2022/12/01 11:08:05;;;;;;;67.50;28.50;;;7.90;99.90;;;;;;5007717;28;20034;-92
2022/12/01 11:10:32;;;;;;;74.32;31.65;;;8.00;99.90;;;;;;5021454;28;20084;-92
2022/12/01 11:13:23;;;;;;;69.82;28.95;;;7.90;99.90;;;;;;5014854;28;20490;-91
2022/12/01 11:16:31;;;;;;;67.65;30.95;;;8.00;99.90;;;;;;5007598;28;20034;-92
2022/12/01 11:19:09;;;;;;;70.38;31.55;;;7.90;99.90;;;;;;5006190;28;20093;-92
2022/12/01 11:21:43;;;;;;;63.70;28.85;;;7.80;99.90;;;;;;5023512;28;20515;-92
2022/12/01 11:24:29;;;;;;;74.97;32.75;;;7.80;99.90;;;;;;5028622;28;20447;-92
2022/12/01 11:26:56;;;;;;;75.72;31.90;;;7.70;99.90;;;;;;5020216;28;20021;-93
2022/12/01 11:29:34;;;;;;;69.45;30.30;;;7.70;99.90;;;;;;5014646;28;20022;-91
2022/12/01 11:32:03;;;;;;;66.25;29.95;;;7.70;99.90;;;;;;5001246;28;20046;-92
2022/12/01 11:34:33;;;;;;;67.32;30.20;;;7.80;99.90;;;;;;5010009;28;20025;-91
2022/12/01 11:37:08;;;;;;;69.82;31.15;;;7.80;99.90;;;;;;5017378;28;20029;-92
2022/12/01 11:39:40;;;;;;;66.72;29.65;;;7.80;99.90;;;;;;5012777;28;20022;-92
2022/12/01 11:42:17;;;;;;;67.50;31.67;;;7.90;99.90;;;;;;5018246;28;20076;-92
2022/12/01 11:44:52;;;;;;;59.63;29.83;;;7.90;99.90;;;;;;5031051;28;20038;-92
2022/12/01 11:47:24;;;;;;;76.20;31.83;;;7.90;99.90;;;;;;5018227;28;20503;-92
2022/12/01 11:50:25;;;;;;;68.30;30.80;;;7.90;99.90;;;;;;5013388;28;20502;-92
2022/12/01 11:52:50;;;;;;;62.38;30.13;;;8.00;99.90;;;;;;5009636;28;20025;-92
2022/12/01 11:55:21;;;;;;;69.60;30.33;;;8.00;99.90;;;;;;5012822;28;20041;-91
2022/12/01 11:57:50;;;;;;;68.10;29.13;;;8.00;99.90;;;;;;5017232;28;20018;-91
2022/12/01 12:00:18;;;;;;;61.78;28.48;;;8.00;99.90;;;;;;5019396;28;20018;-92
2022/12/01 12:03:10;;;;;;;56.80;26.73;;;8.00;99.90;;;;;;5020091;28;20096;-92
2022/12/01 12:05:54;;;;;;;57.47;26.58;;;8.00;99.90;;;;;;5019203;28;20438;-91
2022/12/01 12:08:37;;;;;;;61.90;27.42;;;8.10;99.90;;;;;;5019300;28;20022;-92
2022/12/01 12:11:14;;;;;;;58.58;27.52;;;8.10;99.90;;;;;;5019164;28;20492;-92
2022/12/01 12:13:51;;;;;;;58.97;27.80;;;8.10;99.90;;;;;;5014750;28;20030;-93
2022/12/01 12:16:48;;;;;;;64.20;29.20;;;8.10;99.90;;;;;;4999198;28;20033;-92
2022/12/01 12:19:31;;;;;;;64.88;29.02;;;8.10;99.90;;;;;;5030915;28;20033;-93
2022/12/01 12:22:17;;;;;;;59.17;28.20;;;8.10;99.90;;;;;;5018325;28;20083;-93
2022/12/01 12:24:59;;;;;;;55.47;25.48;;;8.10;99.90;;;;;;5019118;28;20030;-92
2022/12/01 12:27:53;;;;;;;61.78;28.58;;;8.20;99.90;;;;;;5018424;28;20117;-91
2022/12/01 12:30:25;;;;;;;59.67;28.05;;;8.20;99.90;;;;;;5017562;28;20116;-91
2022/12/01 12:33:21;;;;;;;63.28;29.58;;;8.20;99.90;;;;;;5016602;28;20036;-92
2022/12/01 12:35:53;;;;;;;58.55;29.02;;;8.20;99.90;;;;;;5022011;28;20032;-91
2022/12/01 12:38:38;;;;;;;56.28;27.52;;;8.20;99.90;;;;;;5016922;28;20025;-89
2022/12/01 12:41:23;;;;;;;55.80;26.45;;;8.20;99.90;;;;;;5010084;28;20121;-92
2022/12/01 12:44:11;;;;;;;57.03;27.40;;;8.20;99.90;;;;;;5017847;28;20027;-87
2022/12/01 12:46:59;;;;;;;57.33;27.50;;;8.20;99.90;;;;;;5016367;28;20056;-92
2022/12/01 12:49:34;;;;;;;55.35;26.50;;;8.30;99.90;;;;;;4980513;28;20101;-91
2022/12/01 12:52:21;;;;;;;55.13;27.75;;;8.30;99.90;;;;;;5018240;28;20018;-91
2022/12/01 12:54:58;;;;;;;48.72;24.00;;;8.40;99.90;;;;;;5019105;28;20030;-92
2022/12/01 12:57:42;;;;;;;54.05;26.02;;;8.40;99.90;;;;;;5033588;28;20100;-92
2022/12/01 13:00:20;;;;;;;57.92;28.15;;;8.40;99.90;;;;;;5016789;28;20033;-91
2022/12/01 13:03:04;;;;;;;55.28;26.10;;;8.40;99.90;;;;;;5035111;28;20038;-90
2022/12/01 13:05:35;;;;;;;55.47;25.65;;;8.50;99.90;;;;;;5018552;28;20061;-92